Time;durP1;ratioP1;P1;durP2;ratioP2;P2;SDS_P1;SDS_P2;PMS_P1;PMS_P2;Temp;Humidity;BMP_temperature;BMP_pressure;BME280_temperature;BME280_humidity;BME280_pressure;Samples;Min_cycle;Max_cycle;Signal;HPM_P1;HPM_P2
2023/06/05 00:00:49;;;;;;;6.70;4.27;;;14.70;99.90;;;;;;4948097;28;20532;-61
2023/06/05 00:03:17;;;;;;;4.70;4.10;;;14.70;99.90;;;;;;4951405;28;20196;-61
2023/06/05 00:05:46;;;;;;;6.07;4.10;;;14.60;99.90;;;;;;4950109;28;20227;-61
2023/06/05 00:08:16;;;;;;;5.40;4.03;;;14.60;99.90;;;;;;4946430;28;20789;-62
2023/06/05 00:10:44;;;;;;;6.50;4.10;;;14.60;99.90;;;;;;4944452;28;20220;-61
2023/06/05 00:13:12;;;;;;;6.43;4.23;;;14.60;99.90;;;;;;4950722;28;20236;-61
2023/06/05 00:15:41;;;;;;;7.37;4.33;;;14.50;99.90;;;;;;4951079;28;20196;-61
2023/06/05 00:18:14;;;;;;;4.40;4.10;;;14.50;99.90;;;;;;4954534;28;20212;-61
2023/06/05 00:20:42;;;;;;;5.50;4.27;;;14.40;99.90;;;;;;4947924;28;20295;-61
2023/06/05 00:23:11;;;;;;;7.53;4.20;;;14.40;99.90;;;;;;4943486;28;20224;-61
2023/06/05 00:25:40;;;;;;;5.17;4.70;;;14.30;99.90;;;;;;4949617;28;20223;-61
2023/06/05 00:28:08;;;;;;;7.63;4.27;;;14.30;99.90;;;;;;4948856;28;20694;-61
2023/06/05 00:30:37;;;;;;;7.73;4.60;;;14.20;99.90;;;;;;4946093;28;20188;-61
2023/06/05 00:33:05;;;;;;;5.70;4.10;;;14.20;99.90;;;;;;4946188;28;20196;-61
2023/06/05 00:35:35;;;;;;;6.43;4.20;;;14.10;99.90;;;;;;4950861;28;20259;-61
2023/06/05 00:38:03;;;;;;;10.07;4.40;;;14.10;99.90;;;;;;4949431;28;20227;-61
2023/06/05 00:40:31;;;;;;;9.63;5.07;;;14.10;99.90;;;;;;4948889;28;20231;-61
2023/06/05 00:43:00;;;;;;;8.47;4.90;;;14.00;99.90;;;;;;4948146;28;20212;-61
2023/06/05 00:45:28;;;;;;;6.40;4.87;;;14.00;99.90;;;;;;4950945;28;20223;-61
2023/06/05 00:47:57;;;;;;;7.53;4.73;;;13.90;99.90;;;;;;4950832;29;20240;-61
2023/06/05 00:50:26;;;;;;;6.53;4.47;;;13.90;99.90;;;;;;4948075;28;20224;-61
2023/06/05 00:52:56;;;;;;;7.57;5.07;;;13.80;99.90;;;;;;4948936;28;20220;-61
2023/06/05 00:55:24;;;;;;;5.77;4.80;;;13.80;99.90;;;;;;4948107;28;20216;-61
2023/06/05 00:57:54;;;;;;;8.63;5.47;;;13.80;99.90;;;;;;4951186;28;20223;-61
2023/06/05 01:00:23;;;;;;;7.73;5.17;;;13.70;99.90;;;;;;4948472;29;20192;-61
2023/06/05 01:02:53;;;;;;;9.20;5.47;;;13.70;99.90;;;;;;4949599;28;20306;-61
2023/06/05 01:05:22;;;;;;;9.20;5.60;;;13.70;99.90;;;;;;4949003;28;20224;-61
2023/06/05 01:07:50;;;;;;;8.07;4.90;;;13.60;99.90;;;;;;4950720;28;20319;-61
2023/06/05 01:10:20;;;;;;;5.93;5.33;;;13.60;99.90;;;;;;4948056;28;20227;-61
2023/06/05 01:12:58;;;;;;;9.20;5.67;;;13.50;99.90;;;;;;4953410;28;20200;-61
2023/06/05 01:15:29;;;;;;;7.30;5.67;;;13.50;99.90;;;;;;4950044;28;20199;-61
2023/06/05 01:17:59;;;;;;;7.27;5.10;;;13.40;99.90;;;;;;4950703;29;20234;-61
2023/06/05 01:20:33;;;;;;;6.13;5.60;;;13.40;99.90;;;;;;4948934;28;20228;-61
2023/06/05 01:23:04;;;;;;;7.97;5.47;;;13.40;99.90;;;;;;4949635;28;20227;-60
2023/06/05 01:25:34;;;;;;;6.77;5.67;;;13.30;99.90;;;;;;4951352;28;20311;-61
2023/06/05 01:28:11;;;;;;;9.47;5.87;;;13.20;99.90;;;;;;4951943;28;20228;-61
2023/06/05 01:30:46;;;;;;;7.13;5.57;;;13.20;99.90;;;;;;4951017;28;20631;-61
2023/06/05 01:33:21;;;;;;;9.00;5.93;;;13.10;99.90;;;;;;4952763;28;20210;-60
2023/06/05 01:35:51;;;;;;;11.47;6.10;;;13.10;99.90;;;;;;4953075;28;20219;-61
2023/06/05 01:38:22;;;;;;;12.50;6.07;;;13.10;99.90;;;;;;4948944;28;20286;-60
2023/06/05 01:40:51;;;;;;;6.30;5.20;;;13.00;99.90;;;;;;4945032;28;20220;-61
2023/06/05 01:43:20;;;;;;;11.63;6.20;;;13.00;99.90;;;;;;4950642;28;20250;-60
2023/06/05 01:45:48;;;;;;;7.90;5.87;;;12.90;99.90;;;;;;4945511;28;20196;-61
2023/06/05 01:48:17;;;;;;;8.33;5.60;;;12.90;99.90;;;;;;4954244;29;20304;-61
2023/06/05 01:50:45;;;;;;;8.50;6.40;;;12.80;99.90;;;;;;4950973;28;20236;-60
2023/06/05 01:53:16;;;;;;;8.90;5.73;;;12.80;99.90;;;;;;4950011;28;20227;-61
2023/06/05 01:55:48;;;;;;;8.20;6.13;;;12.80;99.90;;;;;;4952501;28;20310;-60
2023/06/05 01:58:16;;;;;;;8.87;5.87;;;12.80;99.90;;;;;;4953804;28;20228;-60
2023/06/05 02:00:46;;;;;;;8.70;6.23;;;12.70;99.90;;;;;;4953139;28;20654;-60
2023/06/05 02:03:15;;;;;;;10.43;6.57;;;12.70;99.90;;;;;;4952169;29;20192;-60
2023/06/05 02:05:44;;;;;;;10.47;6.33;;;12.70;99.90;;;;;;4954194;28;20226;-61
2023/06/05 02:08:13;;;;;;;10.37;6.27;;;12.70;99.90;;;;;;4954460;28;20583;-61
2023/06/05 02:10:44;;;;;;;11.70;7.17;;;12.60;99.90;;;;;;4951190;28;20228;-60
2023/06/05 02:13:15;;;;;;;8.27;6.60;;;12.60;99.90;;;;;;4951908;28;20247;-60
2023/06/05 02:15:44;;;;;;;10.07;6.20;;;12.60;99.90;;;;;;4956994;28;20196;-60
2023/06/05 02:18:15;;;;;;;10.23;6.67;;;12.50;99.90;;;;;;4952776;28;20232;-60
2023/06/05 02:20:43;;;;;;;8.63;6.40;;;12.50;99.90;;;;;;4952708;28;20248;-60
2023/06/05 02:23:12;;;;;;;8.53;6.20;;;12.50;99.90;;;;;;4946408;28;20597;-61
2023/06/05 02:25:40;;;;;;;9.97;6.20;;;12.50;99.90;;;;;;4951503;28;20223;-60
2023/06/05 02:28:08;;;;;;;8.10;6.27;;;12.40;99.90;;;;;;4953414;28;20235;-60
2023/06/05 02:30:38;;;;;;;8.20;6.33;;;12.40;99.90;;;;;;4954718;28;20215;-60
2023/06/05 02:33:08;;;;;;;9.00;6.30;;;12.30;99.90;;;;;;4953274;28;20239;-60
2023/06/05 02:35:36;;;;;;;10.27;6.53;;;12.30;99.90;;;;;;4952731;28;20216;-60
2023/06/05 02:38:06;;;;;;;9.20;6.43;;;12.30;99.90;;;;;;4954269;28;20568;-60
2023/06/05 02:40:34;;;;;;;10.53;7.10;;;12.30;99.90;;;;;;4951826;28;20223;-60
2023/06/05 02:43:05;;;;;;;10.33;6.83;;;12.30;99.90;;;;;;4952967;28;20228;-60
2023/06/05 02:45:35;;;;;;;12.80;6.97;;;12.20;99.90;;;;;;4953674;28;20218;-60
2023/06/05 02:48:06;;;;;;;7.20;6.47;;;12.20;99.90;;;;;;4952986;29;20240;-60
2023/06/05 02:50:35;;;;;;;8.93;6.50;;;12.20;99.90;;;;;;4950696;28;20587;-60
2023/06/05 02:53:03;;;;;;;8.67;6.43;;;12.20;99.90;;;;;;4951799;28;20220;-60
2023/06/05 02:55:32;;;;;;;7.87;6.80;;;12.10;99.90;;;;;;4946724;28;20230;-60
2023/06/05 02:58:01;;;;;;;10.67;7.07;;;12.10;99.90;;;;;;4947908;28;20286;-60
2023/06/05 03:00:29;;;;;;;7.70;6.90;;;12.10;99.90;;;;;;4950011;29;20570;-60
2023/06/05 03:02:57;;;;;;;10.90;7.17;;;12.00;99.90;;;;;;4951258;28;20215;-61
2023/06/05 03:05:28;;;;;;;8.77;7.13;;;12.00;99.90;;;;;;4949160;28;20299;-61
2023/06/05 03:07:56;;;;;;;7.57;6.60;;;12.00;99.90;;;;;;4946407;28;20698;-60
2023/06/05 03:10:26;;;;;;;11.97;7.17;;;12.00;99.90;;;;;;4947101;28;20682;-60
2023/06/05 03:12:55;;;;;;;10.20;7.20;;;11.90;99.90;;;;;;4948977;28;20622;-61
2023/06/05 03:15:24;;;;;;;10.83;7.33;;;11.90;99.90;;;;;;4953712;28;20211;-60
2023/06/05 03:17:52;;;;;;;14.77;7.03;;;11.90;99.90;;;;;;4957144;28;20228;-60
2023/06/05 03:20:22;;;;;;;11.27;7.70;;;11.90;99.90;;;;;;4952082;28;20545;-60
2023/06/05 03:22:51;;;;;;;7.80;6.80;;;11.80;99.90;;;;;;4952217;28;20284;-60
2023/06/05 03:25:20;;;;;;;10.47;7.27;;;11.80;99.90;;;;;;4950023;28;20745;-60
2023/06/05 03:27:49;;;;;;;8.27;6.93;;;11.80;99.90;;;;;;4948911;28;20203;-60
2023/06/05 03:30:18;;;;;;;11.33;7.43;;;11.70;99.90;;;;;;4953662;28;20192;-60
2023/06/05 03:32:48;;;;;;;9.87;7.30;;;11.70;99.90;;;;;;4949389;28;20310;-60
2023/06/05 03:35:18;;;;;;;12.37;7.90;;;11.70;99.90;;;;;;4945855;28;20220;-60
2023/06/05 03:37:46;;;;;;;10.33;7.17;;;11.70;99.90;;;;;;4945040;28;20311;-60
2023/06/05 03:40:16;;;;;;;9.07;7.53;;;11.70;99.90;;;;;;4950646;28;20602;-61
2023/06/05 03:42:44;;;;;;;11.03;7.63;;;11.70;99.90;;;;;;4944770;28;20273;-60
2023/06/05 03:45:13;;;;;;;11.70;7.77;;;11.70;99.90;;;;;;4947065;28;20203;-60
2023/06/05 03:47:43;;;;;;;16.63;7.77;;;11.70;99.90;;;;;;4945077;28;20224;-60
2023/06/05 03:50:13;;;;;;;10.47;7.13;;;11.60;99.90;;;;;;4945975;28;20691;-60
2023/06/05 03:52:41;;;;;;;11.93;7.80;;;11.60;99.90;;;;;;4948737;28;20227;-60
2023/06/05 03:55:10;;;;;;;9.10;7.33;;;11.60;99.90;;;;;;4943114;28;20325;-60
2023/06/05 03:57:41;;;;;;;10.77;7.70;;;11.60;99.90;;;;;;4949623;28;20196;-60
2023/06/05 04:00:10;;;;;;;13.23;7.87;;;11.60;99.90;;;;;;4952176;28;20207;-60
2023/06/05 04:02:39;;;;;;;11.47;7.70;;;11.60;99.90;;;;;;4947558;28;20239;-60
2023/06/05 04:05:11;;;;;;;11.47;7.53;;;11.60;99.90;;;;;;4949981;28;20287;-60
2023/06/05 04:07:40;;;;;;;11.37;7.93;;;11.60;99.90;;;;;;4948250;28;20319;-60
2023/06/05 04:10:09;;;;;;;10.53;8.10;;;11.60;99.90;;;;;;4949243;28;20254;-60
2023/06/05 04:12:37;;;;;;;11.17;7.40;;;11.60;99.90;;;;;;4949302;28;20199;-60
2023/06/05 04:15:10;;;;;;;13.03;7.57;;;11.70;99.90;;;;;;4947740;28;20240;-60
2023/06/05 04:17:38;;;;;;;10.87;7.57;;;11.70;99.90;;;;;;4948047;28;20215;-60
2023/06/05 04:20:13;;;;;;;9.83;7.63;;;11.70;99.90;;;;;;4949984;28;20222;-60
2023/06/05 04:22:42;;;;;;;12.57;7.63;;;11.70;99.90;;;;;;4944225;28;20216;-60
2023/06/05 04:25:12;;;;;;;11.87;7.87;;;11.70;99.90;;;;;;4947434;28;20236;-60
2023/06/05 04:27:41;;;;;;;8.63;7.77;;;11.70;99.90;;;;;;4949574;28;20282;-60
2023/06/05 04:30:13;;;;;;;12.60;7.90;;;11.70;99.90;;;;;;4950661;29;20207;-60
2023/06/05 04:32:42;;;;;;;10.80;8.00;;;11.70;99.90;;;;;;4949749;28;20705;-60
2023/06/05 04:35:12;;;;;;;10.13;7.47;;;11.80;99.90;;;;;;4949573;28;20247;-60
2023/06/05 04:37:41;;;;;;;14.53;7.67;;;11.80;99.90;;;;;;4946004;28;20235;-60
2023/06/05 04:40:10;;;;;;;9.80;7.77;;;11.80;99.90;;;;;;4945910;28;20599;-60
2023/06/05 04:42:38;;;;;;;13.73;7.60;;;11.90;99.90;;;;;;4950723;28;20307;-59
2023/06/05 04:45:09;;;;;;;10.70;7.83;;;11.90;99.90;;;;;;4954880;28;20207;-60
2023/06/05 04:47:38;;;;;;;13.37;8.30;;;12.00;99.90;;;;;;4948609;28;20227;-60
2023/06/05 04:50:08;;;;;;;11.37;7.63;;;12.10;99.90;;;;;;4952285;28;20322;-60
2023/06/05 04:52:39;;;;;;;9.77;8.33;;;12.10;99.90;;;;;;4955649;28;20291;-60
2023/06/05 04:55:28;;;;;;;12.23;8.10;;;12.10;99.90;;;;;;4953813;28;20231;-60
2023/06/05 04:58:00;;;;;;;10.70;8.10;;;12.20;99.90;;;;;;4955040;28;20231;-60
2023/06/05 05:00:29;;;;;;;14.07;8.60;;;12.20;99.90;;;;;;4952406;29;20204;-60
2023/06/05 05:02:59;;;;;;;15.17;7.50;;;12.30;99.90;;;;;;4951675;28;20238;-59
2023/06/05 05:05:27;;;;;;;9.47;8.20;;;12.30;99.90;;;;;;4954498;28;20223;-61
2023/06/05 05:07:56;;;;;;;13.27;8.33;;;12.40;99.90;;;;;;4956062;28;20234;-60
2023/06/05 05:10:29;;;;;;;11.57;7.83;;;12.40;99.90;;;;;;4952234;28;20231;-61
2023/06/05 05:13:00;;;;;;;10.73;8.07;;;12.50;99.90;;;;;;4952341;28;20342;-60
2023/06/05 05:15:29;;;;;;;12.20;8.43;;;12.50;99.90;;;;;;4956764;28;20224;-60
2023/06/05 05:18:03;;;;;;;11.20;8.00;;;12.60;99.90;;;;;;4953157;29;20220;-61
2023/06/05 05:20:34;;;;;;;16.17;8.17;;;12.70;99.90;;;;;;4952465;28;20311;-60
2023/06/05 05:23:02;;;;;;;14.27;8.27;;;12.80;99.90;;;;;;4949755;28;20236;-60
2023/06/05 05:25:31;;;;;;;12.73;8.07;;;12.80;99.90;;;;;;4953855;28;20239;-60
2023/06/05 05:27:59;;;;;;;9.40;7.70;;;12.80;99.90;;;;;;4953153;28;20227;-60
2023/06/05 05:30:29;;;;;;;11.10;8.07;;;12.90;99.90;;;;;;4959460;28;20773;-61
2023/06/05 05:32:59;;;;;;;14.97;8.90;;;12.90;99.90;;;;;;4953939;28;20219;-60
2023/06/05 05:35:27;;;;;;;10.13;7.67;;;13.00;99.90;;;;;;4952167;28;20640;-60
2023/06/05 05:37:56;;;;;;;10.73;9.13;;;13.10;99.90;;;;;;4953567;28;20266;-60
2023/06/05 05:40:24;;;;;;;12.10;8.40;;;13.20;99.90;;;;;;4946785;28;20224;-60
2023/06/05 05:42:52;;;;;;;12.87;7.83;;;13.20;99.90;;;;;;4952117;28;20552;-60
2023/06/05 05:45:21;;;;;;;17.57;8.97;;;13.30;99.90;;;;;;4955437;28;20573;-60
2023/06/05 05:47:49;;;;;;;12.17;8.20;;;13.50;99.90;;;;;;4953851;28;20231;-61
2023/06/05 05:50:19;;;;;;;10.40;8.40;;;13.60;99.90;;;;;;4950687;28;20239;-60
2023/06/05 05:52:47;;;;;;;15.90;8.17;;;13.60;99.90;;;;;;4956611;28;20223;-60
2023/06/05 05:55:16;;;;;;;11.20;8.20;;;13.70;99.90;;;;;;4951220;28;20233;-60
2023/06/05 05:57:44;;;;;;;12.60;9.03;;;13.70;99.90;;;;;;4953212;28;20196;-60
2023/06/05 06:00:14;;;;;;;9.63;8.10;;;13.80;99.90;;;;;;4948251;28;20227;-60
2023/06/05 06:02:43;;;;;;;13.27;8.23;;;13.90;99.90;;;;;;4947005;28;20259;-60
2023/06/05 06:05:12;;;;;;;15.60;8.50;;;14.00;99.90;;;;;;4949864;28;20236;-60
2023/06/05 06:07:44;;;;;;;10.20;7.70;;;14.10;99.90;;;;;;4950723;28;20258;-60
2023/06/05 06:10:13;;;;;;;14.40;8.23;;;14.10;99.90;;;;;;4957478;28;20230;-61
2023/06/05 06:12:42;;;;;;;14.57;8.33;;;14.10;99.90;;;;;;4943742;28;20224;-61
2023/06/05 06:15:11;;;;;;;11.17;8.10;;;14.10;99.90;;;;;;4955108;28;20192;-60
2023/06/05 06:17:40;;;;;;;9.60;8.07;;;14.20;99.90;;;;;;4954891;28;20247;-61
2023/06/05 06:20:12;;;;;;;14.23;8.07;;;14.30;99.90;;;;;;4949962;28;20622;-61
2023/06/05 06:22:43;;;;;;;9.50;7.93;;;14.30;99.90;;;;;;4948243;28;20235;-61
2023/06/05 06:25:14;;;;;;;10.17;7.50;;;14.50;99.90;;;;;;4951296;28;20236;-61
2023/06/05 06:27:43;;;;;;;15.43;8.03;;;14.60;99.90;;;;;;4952632;28;20208;-60
2023/06/05 06:30:12;;;;;;;8.90;7.37;;;14.70;99.90;;;;;;4951958;29;20312;-61
2023/06/05 06:32:40;;;;;;;9.37;6.83;;;14.70;99.90;;;;;;4949924;28;20228;-61
2023/06/05 06:35:13;;;;;;;9.73;7.07;;;14.90;99.90;;;;;;4948496;28;20843;-60
2023/06/05 06:37:44;;;;;;;9.70;7.00;;;15.00;99.90;;;;;;4953365;28;20224;-61
2023/06/05 06:40:14;;;;;;;8.17;7.33;;;15.10;99.90;;;;;;4953758;28;20270;-61
2023/06/05 06:42:42;;;;;;;7.60;6.87;;;15.10;99.90;;;;;;4953957;28;20251;-60
2023/06/05 06:45:11;;;;;;;9.90;7.00;;;15.20;99.90;;;;;;4954703;28;20208;-61
2023/06/05 06:47:40;;;;;;;11.23;7.17;;;15.40;99.90;;;;;;4953109;28;20989;-61
2023/06/05 06:50:10;;;;;;;7.93;6.80;;;15.50;99.90;;;;;;4950913;28;20778;-61
2023/06/05 06:52:39;;;;;;;8.37;7.57;;;15.50;99.90;;;;;;4950934;28;20608;-61
2023/06/05 06:55:10;;;;;;;8.87;6.80;;;15.70;99.90;;;;;;4951220;28;20228;-61
2023/06/05 06:57:39;;;;;;;14.13;7.50;;;15.80;99.90;;;;;;4951741;28;20224;-60
2023/06/05 07:00:10;;;;;;;12.20;7.50;;;16.00;99.90;;;;;;4952551;28;20215;-61
2023/06/05 07:02:41;;;;;;;10.47;7.20;;;16.00;99.90;;;;;;4947317;28;20719;-61
2023/06/05 07:05:10;;;;;;;9.77;7.83;;;16.00;99.90;;;;;;4953589;28;20750;-61
2023/06/05 07:07:38;;;;;;;9.23;7.03;;;16.00;99.90;;;;;;4951773;28;20233;-61
2023/06/05 07:10:08;;;;;;;9.30;7.50;;;16.00;99.90;;;;;;4953948;28;20224;-61
2023/06/05 07:12:37;;;;;;;10.77;7.43;;;16.20;99.90;;;;;;4947858;28;20220;-61
2023/06/05 07:15:06;;;;;;;9.53;7.20;;;16.20;99.90;;;;;;4945998;28;20200;-61
2023/06/05 07:17:35;;;;;;;10.17;6.77;;;16.20;99.90;;;;;;4950930;28;20266;-61
2023/06/05 07:20:05;;;;;;;10.90;7.43;;;16.40;99.90;;;;;;4950297;28;20347;-61
2023/06/05 07:22:33;;;;;;;11.60;7.37;;;16.40;99.90;;;;;;4948768;28;20855;-61
2023/06/05 07:25:03;;;;;;;8.60;7.73;;;16.50;99.90;;;;;;4951246;28;20707;-61
2023/06/05 07:27:32;;;;;;;9.73;7.07;;;16.60;99.90;;;;;;4952993;28;20219;-60
2023/06/05 07:30:01;;;;;;;9.87;7.57;;;16.70;99.90;;;;;;4953874;28;20230;-61
2023/06/05 07:32:30;;;;;;;9.97;7.80;;;16.90;99.90;;;;;;4953262;28;20224;-61
2023/06/05 07:34:58;;;;;;;12.67;7.90;;;17.00;99.90;;;;;;4951819;28;20216;-61
2023/06/05 07:37:26;;;;;;;10.03;7.63;;;17.00;99.90;;;;;;4952414;28;20567;-61
2023/06/05 07:39:55;;;;;;;8.80;7.87;;;17.10;99.90;;;;;;4951574;28;20717;-61
2023/06/05 07:42:23;;;;;;;10.23;6.93;;;17.10;99.90;;;;;;4954208;28;20191;-60
2023/06/05 07:44:53;;;;;;;11.63;7.67;;;17.30;99.90;;;;;;4953164;28;20338;-61
2023/06/05 07:47:21;;;;;;;9.30;7.20;;;17.40;99.90;;;;;;4953113;28;20240;-61
2023/06/05 07:49:58;;;;;;;10.60;7.53;;;17.50;99.90;;;;;;4950213;28;20253;-61
2023/06/05 07:52:28;;;;;;;11.00;7.50;;;17.60;99.90;;;;;;4953632;28;20238;-61
2023/06/05 07:54:56;;;;;;;11.30;7.50;;;17.60;99.90;;;;;;4950474;28;20557;-61
2023/06/05 07:57:25;;;;;;;9.17;7.57;;;17.70;99.90;;;;;;4952505;28;20212;-61
2023/06/05 07:59:56;;;;;;;17.03;8.30;;;17.90;99.90;;;;;;4951681;28;20227;-61
2023/06/05 08:02:24;;;;;;;9.97;7.07;;;18.10;99.90;;;;;;4953197;28;20220;-61
2023/06/05 08:04:52;;;;;;;11.07;7.50;;;18.10;99.90;;;;;;4952848;28;20611;-61
2023/06/05 08:07:21;;;;;;;11.33;7.80;;;18.30;99.90;;;;;;4952244;28;20223;-61
2023/06/05 08:09:50;;;;;;;7.67;6.87;;;18.50;99.90;;;;;;4948189;28;20227;-61
2023/06/05 08:12:18;;;;;;;9.00;7.30;;;18.60;99.90;;;;;;4947842;29;20690;-61
2023/06/05 08:14:46;;;;;;;12.07;7.63;;;18.80;99.90;;;;;;4944442;28;20244;-61
2023/06/05 08:17:16;;;;;;;10.60;7.67;;;18.90;99.90;;;;;;4958044;28;20228;-61
2023/06/05 08:19:45;;;;;;;8.30;7.20;;;19.10;99.90;;;;;;4955740;28;20572;-61
2023/06/05 08:22:14;;;;;;;10.03;7.43;;;19.20;99.90;;;;;;4952059;28;20236;-61
2023/06/05 08:24:42;;;;;;;10.10;7.27;;;19.30;99.90;;;;;;4950564;28;20211;-61
2023/06/05 08:27:10;;;;;;;9.30;7.20;;;19.60;99.90;;;;;;4946978;28;20222;-61
2023/06/05 08:29:39;;;;;;;10.70;6.53;;;19.80;99.90;;;;;;4942598;28;20623;-61
2023/06/05 08:32:07;;;;;;;10.00;7.30;;;19.90;99.90;;;;;;4950736;28;20238;-62
2023/06/05 08:34:37;;;;;;;10.07;7.30;;;20.10;99.90;;;;;;4950143;28;20220;-62
2023/06/05 08:37:06;;;;;;;12.23;7.30;;;20.10;99.90;;;;;;4947499;28;20319;-62
2023/06/05 08:39:34;;;;;;;9.50;7.67;;;20.20;99.90;;;;;;4950414;28;21023;-61
2023/06/05 08:42:03;;;;;;;7.73;6.77;;;20.20;99.90;;;;;;4948334;28;20702;-61
2023/06/05 08:44:32;;;;;;;7.60;6.90;;;20.50;99.90;;;;;;4950668;28;20591;-61
2023/06/05 08:47:04;;;;;;;7.77;6.53;;;20.60;99.90;;;;;;4950625;28;20242;-62
2023/06/05 08:49:36;;;;;;;10.27;7.03;;;20.90;99.90;;;;;;4952642;28;20222;-62
2023/06/05 08:52:08;;;;;;;11.70;6.93;;;21.00;99.90;;;;;;4947563;28;20229;-62
2023/06/05 08:54:39;;;;;;;10.87;6.90;;;21.00;99.90;;;;;;4952244;28;20826;-61
2023/06/05 08:57:08;;;;;;;7.77;6.90;;;21.00;99.90;;;;;;4951537;28;20197;-61
2023/06/05 08:59:37;;;;;;;8.43;6.60;;;21.10;99.90;;;;;;4950956;28;20228;-62
2023/06/05 09:02:07;;;;;;;8.67;6.90;;;21.40;99.90;;;;;;4949185;28;20258;-62
2023/06/05 09:04:35;;;;;;;10.83;7.20;;;21.70;99.90;;;;;;4948251;28;20226;-62
2023/06/05 09:07:06;;;;;;;8.90;7.03;;;21.80;99.90;;;;;;4945632;28;20277;-62
2023/06/05 09:09:35;;;;;;;7.23;6.53;;;21.70;99.90;;;;;;4949366;28;20871;-61
2023/06/05 09:12:05;;;;;;;8.00;7.20;;;21.70;99.90;;;;;;4950420;28;20224;-62
2023/06/05 09:14:33;;;;;;;9.17;7.07;;;21.90;99.90;;;;;;4955082;28;20587;-62
2023/06/05 09:17:03;;;;;;;9.87;6.30;;;21.90;99.90;;;;;;4952217;28;20575;-62
2023/06/05 09:19:38;;;;;;;10.40;6.90;;;22.30;99.90;;;;;;4954531;28;20224;-62
2023/06/05 09:22:09;;;;;;;12.20;7.47;;;22.40;99.90;;;;;;4952788;28;20232;-62
2023/06/05 09:24:38;;;;;;;7.77;6.90;;;22.60;99.90;;;;;;4949947;28;20210;-61
2023/06/05 09:27:08;;;;;;;8.07;6.27;;;22.80;99.90;;;;;;4951488;29;20555;-62
2023/06/05 09:29:38;;;;;;;11.95;7.13;;;23.10;99.90;;;;;;4949664;28;22168;-62
2023/06/05 09:32:08;;;;;;;7.85;6.75;;;23.40;99.90;;;;;;4953436;28;20708;-62
2023/06/05 09:34:38;;;;;;;9.43;6.40;;;23.60;99.90;;;;;;4954129;28;20318;-62
2023/06/05 09:37:09;;;;;;;6.87;6.20;;;23.60;99.90;;;;;;4949724;28;20606;-63
2023/06/05 09:39:39;;;;;;;9.18;7.03;;;23.80;99.90;;;;;;4952517;28;20195;-62
2023/06/05 09:42:08;;;;;;;10.13;6.60;;;23.90;99.90;;;;;;4955433;28;20222;-62
2023/06/05 09:44:36;;;;;;;10.63;7.32;;;23.90;99.90;;;;;;4955977;28;20243;-62
2023/06/05 09:47:08;;;;;;;8.07;6.40;;;24.10;99.90;;;;;;4954201;28;20612;-62
2023/06/05 09:49:48;;;;;;;11.52;7.03;;;24.30;99.90;;;;;;4949180;28;20287;-62
2023/06/05 09:52:18;;;;;;;12.13;6.72;;;24.60;99.90;;;;;;4952678;28;20612;-62
2023/06/05 09:54:47;;;;;;;9.55;6.72;;;24.80;99.90;;;;;;4949576;28;20220;-62
2023/06/05 09:57:16;;;;;;;9.25;6.13;;;24.90;99.90;;;;;;4954858;29;20733;-62
2023/06/05 09:59:51;;;;;;;8.68;5.90;;;25.00;99.90;;;;;;4954782;28;20232;-62
2023/06/05 10:02:21;;;;;;;7.78;6.75;;;25.00;99.90;;;;;;4953297;28;20233;-62
2023/06/05 10:04:53;;;;;;;10.18;6.03;;;24.90;99.90;;;;;;4951709;28;20582;-62
2023/06/05 10:07:24;;;;;;;7.05;6.45;;;25.00;99.90;;;;;;4949932;28;20339;-63
2023/06/05 10:09:52;;;;;;;7.57;6.55;;;25.30;99.90;;;;;;4944697;28;20227;-62
2023/06/05 10:12:21;;;;;;;7.43;6.03;;;25.40;99.90;;;;;;4948396;28;20228;-62
2023/06/05 10:14:50;;;;;;;9.38;6.50;;;25.80;99.90;;;;;;4949286;28;20733;-62
2023/06/05 10:17:19;;;;;;;8.70;6.57;;;26.10;99.90;;;;;;4946706;28;20230;-63
2023/06/05 10:19:48;;;;;;;7.90;5.68;;;25.80;99.90;;;;;;4946721;28;20696;-62
2023/06/05 10:22:18;;;;;;;13.88;7.00;;;26.10;99.90;;;;;;4948716;28;20220;-63
2023/06/05 10:25:00;;;;;;;8.50;5.70;;;26.60;99.90;;;;;;4948831;28;20280;-63
2023/06/05 10:27:53;;;;;;;9.52;6.22;;;26.50;99.90;;;;;;4947653;28;20796;-63
2023/06/05 10:30:55;;;;;;;7.65;6.50;;;26.60;99.90;;;;;;4946893;28;20219;-63
2023/06/05 10:33:35;;;;;;;8.57;5.82;;;26.60;99.90;;;;;;4952721;28;20231;-63
2023/06/05 10:36:12;;;;;;;12.43;6.13;;;26.50;99.90;;;;;;4949578;28;21552;-63
2023/06/05 10:38:43;;;;;;;9.02;6.03;;;26.50;99.90;;;;;;4949158;28;20227;-63
2023/06/05 10:41:13;;;;;;;11.13;6.13;;;26.50;99.90;;;;;;4946772;28;20242;-62
2023/06/05 10:43:48;;;;;;;8.20;6.47;;;26.70;99.90;;;;;;4950595;28;20237;-63
2023/06/05 10:46:31;;;;;;;8.48;6.18;;;26.60;99.90;;;;;;4949259;28;20237;-62
2023/06/05 10:49:15;;;;;;;9.20;6.05;;;26.50;99.90;;;;;;4954676;28;20728;-63
2023/06/05 10:51:45;;;;;;;8.23;5.65;;;26.50;99.90;;;;;;4951617;28;20296;-62
2023/06/05 10:54:16;;;;;;;9.75;6.28;;;26.90;99.90;;;;;;4952335;28;20294;-63
2023/06/05 10:56:56;;;;;;;11.40;5.90;;;26.80;99.90;;;;;;4952470;28;20268;-63
2023/06/05 10:59:25;;;;;;;6.97;6.07;;;26.80;99.90;;;;;;4950137;28;20631;-63
2023/06/05 11:02:25;;;;;;;10.05;6.90;;;26.70;99.90;;;;;;4950686;28;20220;-63
2023/06/05 11:05:12;;;;;;;7.75;6.03;;;26.60;99.90;;;;;;4950951;28;20238;-63
2023/06/05 11:07:45;;;;;;;8.15;6.45;;;26.70;99.90;;;;;;4947371;28;20231;-63
2023/06/05 11:10:21;;;;;;;8.35;6.60;;;26.90;99.90;;;;;;4946855;28;20410;-63
2023/06/05 11:13:03;;;;;;;10.68;6.30;;;26.80;99.90;;;;;;4950698;28;20255;-62
2023/06/05 11:15:44;;;;;;;15.55;6.97;;;26.70;99.90;;;;;;4955008;28;20192;-62
2023/06/05 11:18:33;;;;;;;9.90;6.10;;;26.80;99.90;;;;;;4948813;28;20203;-63
2023/06/05 11:21:02;;;;;;;7.70;6.65;;;26.70;99.90;;;;;;4944654;28;20229;-63
2023/06/05 11:23:31;;;;;;;7.53;6.60;;;26.70;99.90;;;;;;4950346;28;20735;-62
2023/06/05 11:26:38;;;;;;;8.33;6.50;;;26.50;99.90;;;;;;4951596;28;20317;-63
2023/06/05 11:29:15;;;;;;;10.97;6.33;;;26.50;99.90;;;;;;4954884;28;20224;-63
2023/06/05 11:31:45;;;;;;;9.82;6.88;;;26.50;99.90;;;;;;4954630;28;20222;-62
2023/06/05 11:34:14;;;;;;;11.18;7.32;;;26.50;99.90;;;;;;4953123;28;20250;-62
2023/06/05 11:36:42;;;;;;;10.27;6.38;;;26.20;99.90;;;;;;4954081;28;20285;-62
2023/06/05 11:39:12;;;;;;;12.90;6.60;;;26.30;99.90;;;;;;4952955;28;20200;-63
2023/06/05 11:41:48;;;;;;;8.38;6.95;;;26.50;99.90;;;;;;4951684;28;20774;-63
2023/06/05 11:44:32;;;;;;;10.48;6.47;;;26.70;99.90;;;;;;4952368;28;20255;-62
2023/06/05 11:47:00;;;;;;;9.68;6.80;;;26.60;99.90;;;;;;4950981;28;20249;-63
2023/06/05 11:49:30;;;;;;;8.87;7.10;;;26.60;99.90;;;;;;4953087;28;20228;-62
2023/06/05 11:51:58;;;;;;;9.23;7.03;;;26.60;99.90;;;;;;4950659;28;20230;-63
2023/06/05 11:54:29;;;;;;;9.93;6.83;;;26.40;99.90;;;;;;4951509;28;20208;-62
2023/06/05 11:57:01;;;;;;;12.70;7.20;;;26.50;99.90;;;;;;4943345;28;20209;-62
2023/06/05 11:59:31;;;;;;;11.10;7.03;;;26.40;99.90;;;;;;4943740;28;20283;-62
2023/06/05 12:02:00;;;;;;;7.80;6.40;;;26.20;99.90;;;;;;4951754;28;20221;-62
2023/06/05 12:04:28;;;;;;;12.57;6.47;;;26.20;99.90;;;;;;4952575;28;20315;-63
2023/06/05 12:06:59;;;;;;;11.13;6.47;;;26.30;99.90;;;;;;4948207;28;20247;-62
2023/06/05 12:09:27;;;;;;;7.23;6.40;;;26.30;99.90;;;;;;4952815;28;20200;-62
2023/06/05 12:12:06;;;;;;;6.43;5.70;;;26.30;99.90;;;;;;4951151;28;20229;-62
2023/06/05 12:14:37;;;;;;;7.00;6.30;;;26.40;99.90;;;;;;4948206;28;20247;-62
2023/06/05 12:17:13;;;;;;;8.87;6.80;;;26.40;99.90;;;;;;4950677;28;20231;-61
2023/06/05 12:19:41;;;;;;;7.87;6.90;;;26.40;99.90;;;;;;4951823;28;20262;-62
2023/06/05 12:22:10;;;;;;;10.23;7.00;;;26.20;99.90;;;;;;4951280;28;20247;-62
2023/06/05 12:24:38;;;;;;;10.03;6.40;;;26.00;99.90;;;;;;4949018;28;20264;-62
2023/06/05 12:27:07;;;;;;;11.30;6.00;;;26.00;99.90;;;;;;4953171;28;20224;-62
2023/06/05 12:29:39;;;;;;;11.83;6.90;;;26.00;99.90;;;;;;4949483;28;20231;-62
2023/06/05 12:32:23;;;;;;;8.87;6.63;;;25.70;99.90;;;;;;4956924;28;20252;-62
2023/06/05 12:34:55;;;;;;;10.90;7.20;;;25.80;99.90;;;;;;4949837;28;20224;-62
2023/06/05 12:37:37;;;;;;;9.83;7.00;;;25.80;99.90;;;;;;4947569;28;20613;-62
2023/06/05 12:40:09;;;;;;;8.03;6.43;;;25.80;99.90;;;;;;4950064;28;20224;-62
2023/06/05 12:42:40;;;;;;;9.23;6.43;;;25.80;99.90;;;;;;4947888;28;20211;-62
2023/06/05 12:45:10;;;;;;;8.50;6.10;;;25.80;99.90;;;;;;4950108;28;20281;-62
2023/06/05 12:47:40;;;;;;;9.47;6.20;;;25.90;99.90;;;;;;4946904;28;20319;-62
2023/06/05 12:50:11;;;;;;;11.57;6.07;;;25.90;99.90;;;;;;4950743;28;20228;-62
2023/06/05 12:52:41;;;;;;;11.70;7.20;;;26.00;99.90;;;;;;4952210;28;20235;-63
2023/06/05 12:55:10;;;;;;;8.13;7.20;;;26.10;99.90;;;;;;4943221;28;20224;-62
2023/06/05 12:57:39;;;;;;;11.03;7.57;;;26.10;99.90;;;;;;4954760;28;20200;-61
2023/06/05 13:00:12;;;;;;;9.10;6.43;;;26.10;99.90;;;;;;4951079;28;20669;-62